sensor_id;sensor_type;location;lat;lon;timestamp;P1;durP1;ratioP1;P2;durP2;ratioP2
76136;SDS011;68622;53.128;17.966;2023-07-16T00:00:12;11.40;;;6.60;;
76136;SDS011;68622;53.128;17.966;2023-07-16T00:02:59;12.30;;;6.80;;
76136;SDS011;68622;53.128;17.966;2023-07-16T00:05:26;12.20;;;6.40;;
76136;SDS011;68622;53.128;17.966;2023-07-16T00:07:52;13.60;;;7.10;;
76136;SDS011;68622;53.128;17.966;2023-07-16T00:10:19;11.00;;;6.80;;
76136;SDS011;68622;53.128;17.966;2023-07-16T00:12:45;13.30;;;6.60;;
76136;SDS011;68622;53.128;17.966;2023-07-16T00:15:12;10.90;;;6.40;;
76136;SDS011;68622;53.128;17.966;2023-07-16T00:17:38;11.30;;;6.50;;
76136;SDS011;68622;53.128;17.966;2023-07-16T00:20:05;15.00;;;6.90;;
76136;SDS011;68622;53.128;17.966;2023-07-16T00:22:32;10.80;;;6.30;;
76136;SDS011;68622;53.128;17.966;2023-07-16T00:24:59;10.20;;;6.50;;
76136;SDS011;68622;53.128;17.966;2023-07-16T00:27:26;12.20;;;6.90;;
76136;SDS011;68622;53.128;17.966;2023-07-16T00:29:52;12.80;;;7.00;;
76136;SDS011;68622;53.128;17.966;2023-07-16T00:32:20;12.20;;;6.80;;
76136;SDS011;68622;53.128;17.966;2023-07-16T00:34:46;11.50;;;7.50;;
76136;SDS011;68622;53.128;17.966;2023-07-16T00:37:13;15.30;;;8.20;;
76136;SDS011;68622;53.128;17.966;2023-07-16T00:39:40;15.30;;;8.30;;
76136;SDS011;68622;53.128;17.966;2023-07-16T00:42:06;12.60;;;7.30;;
76136;SDS011;68622;53.128;17.966;2023-07-16T00:44:33;11.30;;;6.60;;
76136;SDS011;68622;53.128;17.966;2023-07-16T00:47:00;12.50;;;7.20;;
76136;SDS011;68622;53.128;17.966;2023-07-16T00:49:27;11.20;;;6.90;;
76136;SDS011;68622;53.128;17.966;2023-07-16T00:51:54;12.10;;;7.00;;
76136;SDS011;68622;53.128;17.966;2023-07-16T00:54:20;12.90;;;7.10;;
76136;SDS011;68622;53.128;17.966;2023-07-16T00:56:48;12.30;;;6.80;;
76136;SDS011;68622;53.128;17.966;2023-07-16T00:59:15;13.00;;;7.10;;
76136;SDS011;68622;53.128;17.966;2023-07-16T01:01:42;12.70;;;7.10;;
76136;SDS011;68622;53.128;17.966;2023-07-16T01:04:08;10.40;;;6.80;;
76136;SDS011;68622;53.128;17.966;2023-07-16T01:09:08;13.10;;;7.30;;
76136;SDS011;68622;53.128;17.966;2023-07-16T01:11:42;11.90;;;7.10;;
76136;SDS011;68622;53.128;17.966;2023-07-16T01:14:10;11.70;;;7.70;;
76136;SDS011;68622;53.128;17.966;2023-07-16T01:16:38;11.40;;;6.60;;
76136;SDS011;68622;53.128;17.966;2023-07-16T01:19:05;11.30;;;7.20;;
76136;SDS011;68622;53.128;17.966;2023-07-16T01:21:45;12.00;;;7.30;;
76136;SDS011;68622;53.128;17.966;2023-07-16T01:24:32;11.20;;;6.90;;
76136;SDS011;68622;53.128;17.966;2023-07-16T01:30:02;12.00;;;7.20;;
76136;SDS011;68622;53.128;17.966;2023-07-16T01:32:33;10.70;;;7.30;;
76136;SDS011;68622;53.128;17.966;2023-07-16T01:35:02;11.30;;;8.20;;
76136;SDS011;68622;53.128;17.966;2023-07-16T01:37:30;13.00;;;7.80;;
76136;SDS011;68622;53.128;17.966;2023-07-16T01:39:56;13.60;;;6.80;;
76136;SDS011;68622;53.128;17.966;2023-07-16T01:42:24;11.50;;;7.20;;
76136;SDS011;68622;53.128;17.966;2023-07-16T01:44:50;11.70;;;7.10;;
76136;SDS011;68622;53.128;17.966;2023-07-16T01:50:11;10.80;;;6.90;;
76136;SDS011;68622;53.128;17.966;2023-07-16T01:52:38;10.70;;;6.70;;
76136;SDS011;68622;53.128;17.966;2023-07-16T01:55:05;13.40;;;6.90;;
76136;SDS011;68622;53.128;17.966;2023-07-16T01:57:31;12.10;;;7.10;;
76136;SDS011;68622;53.128;17.966;2023-07-16T01:59:58;12.00;;;7.10;;
76136;SDS011;68622;53.128;17.966;2023-07-16T02:02:25;13.70;;;7.00;;
76136;SDS011;68622;53.128;17.966;2023-07-16T02:04:51;14.00;;;6.70;;
76136;SDS011;68622;53.128;17.966;2023-07-16T02:07:18;12.60;;;6.50;;
76136;SDS011;68622;53.128;17.966;2023-07-16T02:09:45;9.40;;;5.90;;
76136;SDS011;68622;53.128;17.966;2023-07-16T02:12:12;10.20;;;6.00;;
76136;SDS011;68622;53.128;17.966;2023-07-16T02:14:38;9.10;;;5.90;;
76136;SDS011;68622;53.128;17.966;2023-07-16T02:17:05;12.90;;;5.90;;
76136;SDS011;68622;53.128;17.966;2023-07-16T02:19:32;8.70;;;5.20;;
76136;SDS011;68622;53.128;17.966;2023-07-16T02:21:58;10.30;;;5.40;;
76136;SDS011;68622;53.128;17.966;2023-07-16T02:24:25;11.90;;;6.00;;
76136;SDS011;68622;53.128;17.966;2023-07-16T02:26:51;9.70;;;5.30;;
76136;SDS011;68622;53.128;17.966;2023-07-16T02:29:18;10.20;;;6.00;;
76136;SDS011;68622;53.128;17.966;2023-07-16T02:31:44;11.30;;;6.10;;
76136;SDS011;68622;53.128;17.966;2023-07-16T02:34:12;11.60;;;7.00;;
76136;SDS011;68622;53.128;17.966;2023-07-16T02:36:39;13.10;;;7.10;;
76136;SDS011;68622;53.128;17.966;2023-07-16T02:39:05;12.80;;;7.20;;
76136;SDS011;68622;53.128;17.966;2023-07-16T02:41:32;12.70;;;6.90;;
76136;SDS011;68622;53.128;17.966;2023-07-16T02:44:03;10.30;;;6.10;;
76136;SDS011;68622;53.128;17.966;2023-07-16T02:46:31;11.20;;;6.80;;
76136;SDS011;68622;53.128;17.966;2023-07-16T02:48:59;11.40;;;6.20;;
76136;SDS011;68622;53.128;17.966;2023-07-16T02:51:25;11.00;;;6.60;;
76136;SDS011;68622;53.128;17.966;2023-07-16T02:53:52;14.60;;;6.50;;
76136;SDS011;68622;53.128;17.966;2023-07-16T02:56:18;14.40;;;6.90;;
76136;SDS011;68622;53.128;17.966;2023-07-16T02:58:45;10.00;;;6.00;;
76136;SDS011;68622;53.128;17.966;2023-07-16T03:01:12;10.30;;;5.70;;
76136;SDS011;68622;53.128;17.966;2023-07-16T03:03:38;10.70;;;4.90;;
76136;SDS011;68622;53.128;17.966;2023-07-16T03:06:05;9.40;;;6.00;;
76136;SDS011;68622;53.128;17.966;2023-07-16T03:08:32;11.60;;;5.80;;
76136;SDS011;68622;53.128;17.966;2023-07-16T03:10:58;10.70;;;5.70;;
76136;SDS011;68622;53.128;17.966;2023-07-16T03:13:26;9.20;;;5.50;;
76136;SDS011;68622;53.128;17.966;2023-07-16T03:15:52;9.60;;;5.80;;
76136;SDS011;68622;53.128;17.966;2023-07-16T03:18:19;9.80;;;5.60;;
76136;SDS011;68622;53.128;17.966;2023-07-16T03:20:46;12.50;;;6.20;;
76136;SDS011;68622;53.128;17.966;2023-07-16T03:23:13;11.00;;;5.80;;
76136;SDS011;68622;53.128;17.966;2023-07-16T03:25:40;10.20;;;5.90;;
76136;SDS011;68622;53.128;17.966;2023-07-16T03:28:06;10.60;;;5.60;;
76136;SDS011;68622;53.128;17.966;2023-07-16T03:30:33;10.20;;;5.90;;
76136;SDS011;68622;53.128;17.966;2023-07-16T03:32:59;10.10;;;5.90;;
76136;SDS011;68622;53.128;17.966;2023-07-16T03:35:26;11.10;;;6.00;;
76136;SDS011;68622;53.128;17.966;2023-07-16T03:37:53;10.00;;;6.20;;
76136;SDS011;68622;53.128;17.966;2023-07-16T03:40:23;10.20;;;6.20;;
76136;SDS011;68622;53.128;17.966;2023-07-16T03:42:51;12.80;;;6.20;;
76136;SDS011;68622;53.128;17.966;2023-07-16T03:45:18;10.10;;;6.20;;
76136;SDS011;68622;53.128;17.966;2023-07-16T03:47:45;12.30;;;6.40;;
76136;SDS011;68622;53.128;17.966;2023-07-16T03:50:12;9.70;;;6.60;;
76136;SDS011;68622;53.128;17.966;2023-07-16T03:52:39;12.10;;;6.40;;
76136;SDS011;68622;53.128;17.966;2023-07-16T03:55:05;11.60;;;6.60;;
76136;SDS011;68622;53.128;17.966;2023-07-16T03:57:33;13.40;;;6.10;;
76136;SDS011;68622;53.128;17.966;2023-07-16T04:00:00;11.70;;;6.50;;
76136;SDS011;68622;53.128;17.966;2023-07-16T04:02:27;10.80;;;6.00;;
76136;SDS011;68622;53.128;17.966;2023-07-16T04:04:54;9.60;;;5.60;;
76136;SDS011;68622;53.128;17.966;2023-07-16T04:07:20;9.90;;;6.20;;
76136;SDS011;68622;53.128;17.966;2023-07-16T04:09:47;11.10;;;7.10;;
76136;SDS011;68622;53.128;17.966;2023-07-16T04:12:13;10.10;;;6.30;;
76136;SDS011;68622;53.128;17.966;2023-07-16T04:14:40;11.60;;;5.80;;
76136;SDS011;68622;53.128;17.966;2023-07-16T04:17:06;10.70;;;5.80;;
76136;SDS011;68622;53.128;17.966;2023-07-16T04:19:33;11.00;;;6.50;;
76136;SDS011;68622;53.128;17.966;2023-07-16T04:22:00;9.90;;;5.50;;
76136;SDS011;68622;53.128;17.966;2023-07-16T04:24:27;9.90;;;6.30;;
76136;SDS011;68622;53.128;17.966;2023-07-16T04:26:53;11.40;;;6.60;;
76136;SDS011;68622;53.128;17.966;2023-07-16T04:29:20;9.50;;;6.30;;
76136;SDS011;68622;53.128;17.966;2023-07-16T04:31:47;13.50;;;7.00;;
76136;SDS011;68622;53.128;17.966;2023-07-16T04:34:14;10.20;;;6.50;;
76136;SDS011;68622;53.128;17.966;2023-07-16T04:36:41;10.10;;;6.20;;
76136;SDS011;68622;53.128;17.966;2023-07-16T04:39:09;10.40;;;6.30;;
76136;SDS011;68622;53.128;17.966;2023-07-16T04:41:36;9.90;;;6.30;;
76136;SDS011;68622;53.128;17.966;2023-07-16T04:44:03;10.10;;;6.20;;
76136;SDS011;68622;53.128;17.966;2023-07-16T04:46:30;10.50;;;6.30;;
76136;SDS011;68622;53.128;17.966;2023-07-16T04:48:57;10.50;;;6.60;;
76136;SDS011;68622;53.128;17.966;2023-07-16T04:51:23;15.60;;;6.30;;
76136;SDS011;68622;53.128;17.966;2023-07-16T04:53:51;9.80;;;5.90;;
76136;SDS011;68622;53.128;17.966;2023-07-16T04:56:17;10.10;;;6.40;;
76136;SDS011;68622;53.128;17.966;2023-07-16T04:58:44;11.80;;;6.10;;
76136;SDS011;68622;53.128;17.966;2023-07-16T05:01:11;10.40;;;6.80;;
76136;SDS011;68622;53.128;17.966;2023-07-16T05:03:37;10.20;;;6.80;;
76136;SDS011;68622;53.128;17.966;2023-07-16T05:06:04;9.40;;;6.10;;
76136;SDS011;68622;53.128;17.966;2023-07-16T05:08:31;8.70;;;6.20;;
76136;SDS011;68622;53.128;17.966;2023-07-16T05:10:58;11.20;;;6.40;;
76136;SDS011;68622;53.128;17.966;2023-07-16T05:13:25;10.80;;;6.70;;
76136;SDS011;68622;53.128;17.966;2023-07-16T05:15:52;9.90;;;5.80;;
76136;SDS011;68622;53.128;17.966;2023-07-16T05:18:19;11.00;;;6.40;;
76136;SDS011;68622;53.128;17.966;2023-07-16T05:20:48;11.50;;;6.20;;
76136;SDS011;68622;53.128;17.966;2023-07-16T05:23:17;12.80;;;6.70;;
76136;SDS011;68622;53.128;17.966;2023-07-16T05:25:47;10.00;;;5.90;;
76136;SDS011;68622;53.128;17.966;2023-07-16T05:28:15;8.60;;;6.00;;
76136;SDS011;68622;53.128;17.966;2023-07-16T05:30:42;9.10;;;5.80;;
76136;SDS011;68622;53.128;17.966;2023-07-16T05:33:09;10.00;;;6.10;;
76136;SDS011;68622;53.128;17.966;2023-07-16T05:35:37;10.30;;;5.60;;
76136;SDS011;68622;53.128;17.966;2023-07-16T05:38:05;10.50;;;5.70;;
76136;SDS011;68622;53.128;17.966;2023-07-16T05:40:32;12.30;;;6.30;;
76136;SDS011;68622;53.128;17.966;2023-07-16T05:42:59;12.00;;;6.20;;
76136;SDS011;68622;53.128;17.966;2023-07-16T05:45:25;8.90;;;5.40;;
76136;SDS011;68622;53.128;17.966;2023-07-16T05:47:52;10.40;;;5.60;;
76136;SDS011;68622;53.128;17.966;2023-07-16T05:50:18;8.00;;;5.50;;
76136;SDS011;68622;53.128;17.966;2023-07-16T05:52:45;13.40;;;6.10;;
76136;SDS011;68622;53.128;17.966;2023-07-16T05:55:14;9.30;;;6.00;;
76136;SDS011;68622;53.128;17.966;2023-07-16T05:57:41;7.90;;;5.60;;
76136;SDS011;68622;53.128;17.966;2023-07-16T06:00:08;10.20;;;5.70;;
76136;SDS011;68622;53.128;17.966;2023-07-16T06:02:42;8.50;;;5.90;;
76136;SDS011;68622;53.128;17.966;2023-07-16T06:05:09;11.50;;;5.70;;
76136;SDS011;68622;53.128;17.966;2023-07-16T06:07:36;10.10;;;5.90;;
76136;SDS011;68622;53.128;17.966;2023-07-16T06:10:03;8.80;;;5.20;;
76136;SDS011;68622;53.128;17.966;2023-07-16T06:12:29;11.00;;;5.70;;
76136;SDS011;68622;53.128;17.966;2023-07-16T06:14:56;9.90;;;5.50;;
76136;SDS011;68622;53.128;17.966;2023-07-16T06:17:22;12.70;;;6.10;;
76136;SDS011;68622;53.128;17.966;2023-07-16T06:19:49;9.20;;;5.80;;
76136;SDS011;68622;53.128;17.966;2023-07-16T06:22:17;9.10;;;5.50;;
76136;SDS011;68622;53.128;17.966;2023-07-16T06:24:44;9.90;;;5.30;;
76136;SDS011;68622;53.128;17.966;2023-07-16T06:27:10;8.80;;;4.80;;
76136;SDS011;68622;53.128;17.966;2023-07-16T06:29:37;8.00;;;4.70;;
76136;SDS011;68622;53.128;17.966;2023-07-16T06:32:03;10.40;;;5.00;;
76136;SDS011;68622;53.128;17.966;2023-07-16T06:34:30;10.10;;;5.50;;
76136;SDS011;68622;53.128;17.966;2023-07-16T06:36:57;9.30;;;4.90;;
76136;SDS011;68622;53.128;17.966;2023-07-16T06:39:24;9.40;;;4.80;;
76136;SDS011;68622;53.128;17.966;2023-07-16T06:41:51;12.80;;;5.30;;
76136;SDS011;68622;53.128;17.966;2023-07-16T06:44:17;7.10;;;4.40;;
76136;SDS011;68622;53.128;17.966;2023-07-16T06:46:44;7.20;;;4.60;;
76136;SDS011;68622;53.128;17.966;2023-07-16T06:49:11;6.80;;;4.50;;
76136;SDS011;68622;53.128;17.966;2023-07-16T06:51:37;8.80;;;5.00;;
76136;SDS011;68622;53.128;17.966;2023-07-16T06:54:04;7.10;;;4.40;;
76136;SDS011;68622;53.128;17.966;2023-07-16T06:56:30;8.80;;;4.90;;
76136;SDS011;68622;53.128;17.966;2023-07-16T06:58:57;9.20;;;4.50;;
76136;SDS011;68622;53.128;17.966;2023-07-16T07:01:23;8.00;;;4.50;;
76136;SDS011;68622;53.128;17.966;2023-07-16T07:03:50;8.70;;;4.50;;
76136;SDS011;68622;53.128;17.966;2023-07-16T07:06:17;8.70;;;4.30;;
76136;SDS011;68622;53.128;17.966;2023-07-16T07:08:43;8.80;;;4.70;;
76136;SDS011;68622;53.128;17.966;2023-07-16T07:11:10;9.10;;;4.70;;
76136;SDS011;68622;53.128;17.966;2023-07-16T07:13:37;5.90;;;3.40;;
76136;SDS011;68622;53.128;17.966;2023-07-16T07:16:03;7.30;;;3.60;;
76136;SDS011;68622;53.128;17.966;2023-07-16T07:18:30;8.90;;;3.60;;
76136;SDS011;68622;53.128;17.966;2023-07-16T07:20:57;7.70;;;3.80;;
76136;SDS011;68622;53.128;17.966;2023-07-16T07:23:23;8.00;;;3.90;;
76136;SDS011;68622;53.128;17.966;2023-07-16T07:25:50;7.10;;;2.90;;
76136;SDS011;68622;53.128;17.966;2023-07-16T07:28:18;7.40;;;3.70;;
76136;SDS011;68622;53.128;17.966;2023-07-16T07:30:45;9.10;;;3.10;;
76136;SDS011;68622;53.128;17.966;2023-07-16T07:33:12;7.90;;;3.10;;
76136;SDS011;68622;53.128;17.966;2023-07-16T07:35:39;6.80;;;3.10;;
76136;SDS011;68622;53.128;17.966;2023-07-16T07:38:05;6.30;;;3.30;;
76136;SDS011;68622;53.128;17.966;2023-07-16T07:40:32;7.60;;;3.40;;
76136;SDS011;68622;53.128;17.966;2023-07-16T07:42:59;9.20;;;3.10;;
76136;SDS011;68622;53.128;17.966;2023-07-16T07:45:26;6.20;;;3.00;;
76136;SDS011;68622;53.128;17.966;2023-07-16T07:47:52;7.90;;;2.90;;
76136;SDS011;68622;53.128;17.966;2023-07-16T07:50:19;6.60;;;3.00;;
76136;SDS011;68622;53.128;17.966;2023-07-16T07:52:46;8.40;;;3.00;;
76136;SDS011;68622;53.128;17.966;2023-07-16T07:55:12;5.50;;;2.50;;
76136;SDS011;68622;53.128;17.966;2023-07-16T07:57:39;6.30;;;2.60;;
76136;SDS011;68622;53.128;17.966;2023-07-16T08:00:06;7.50;;;2.60;;
76136;SDS011;68622;53.128;17.966;2023-07-16T08:02:38;6.20;;;2.80;;
76136;SDS011;68622;53.128;17.966;2023-07-16T08:05:05;5.20;;;2.40;;
76136;SDS011;68622;53.128;17.966;2023-07-16T08:07:32;8.20;;;2.70;;
76136;SDS011;68622;53.128;17.966;2023-07-16T08:09:59;5.70;;;2.30;;
76136;SDS011;68622;53.128;17.966;2023-07-16T08:12:26;5.80;;;2.20;;
76136;SDS011;68622;53.128;17.966;2023-07-16T08:14:52;6.60;;;2.10;;
76136;SDS011;68622;53.128;17.966;2023-07-16T08:17:19;6.40;;;1.90;;
76136;SDS011;68622;53.128;17.966;2023-07-16T08:19:45;6.30;;;1.70;;
76136;SDS011;68622;53.128;17.966;2023-07-16T08:22:12;4.90;;;2.20;;
76136;SDS011;68622;53.128;17.966;2023-07-16T08:24:38;6.50;;;2.20;;
76136;SDS011;68622;53.128;17.966;2023-07-16T08:27:05;6.10;;;2.20;;
76136;SDS011;68622;53.128;17.966;2023-07-16T08:29:32;6.10;;;2.30;;
76136;SDS011;68622;53.128;17.966;2023-07-16T08:32:03;5.70;;;2.00;;
76136;SDS011;68622;53.128;17.966;2023-07-16T08:34:30;4.50;;;2.10;;
76136;SDS011;68622;53.128;17.966;2023-07-16T08:36:57;5.50;;;2.10;;
76136;SDS011;68622;53.128;17.966;2023-07-16T08:39:23;5.80;;;1.80;;
76136;SDS011;68622;53.128;17.966;2023-07-16T08:41:50;4.60;;;1.90;;
76136;SDS011;68622;53.128;17.966;2023-07-16T08:44:17;5.30;;;1.90;;
76136;SDS011;68622;53.128;17.966;2023-07-16T08:46:44;5.10;;;2.10;;
76136;SDS011;68622;53.128;17.966;2023-07-16T08:49:11;7.10;;;2.20;;
76136;SDS011;68622;53.128;17.966;2023-07-16T08:51:38;5.40;;;2.20;;
76136;SDS011;68622;53.128;17.966;2023-07-16T08:54:05;6.60;;;2.70;;
76136;SDS011;68622;53.128;17.966;2023-07-16T08:56:32;4.50;;;1.80;;
76136;SDS011;68622;53.128;17.966;2023-07-16T08:58:59;5.10;;;2.00;;
76136;SDS011;68622;53.128;17.966;2023-07-16T09:01:26;4.70;;;2.10;;
76136;SDS011;68622;53.128;17.966;2023-07-16T09:03:54;5.30;;;2.00;;
76136;SDS011;68622;53.128;17.966;2023-07-16T09:06:20;6.20;;;2.30;;
76136;SDS011;68622;53.128;17.966;2023-07-16T09:08:47;5.90;;;2.50;;
76136;SDS011;68622;53.128;17.966;2023-07-16T09:11:13;5.70;;;2.40;;
76136;SDS011;68622;53.128;17.966;2023-07-16T09:13:43;6.80;;;2.30;;
76136;SDS011;68622;53.128;17.966;2023-07-16T09:16:11;4.70;;;1.90;;
76136;SDS011;68622;53.128;17.966;2023-07-16T09:18:39;5.70;;;2.50;;
76136;SDS011;68622;53.128;17.966;2023-07-16T09:21:06;4.10;;;2.10;;
76136;SDS011;68622;53.128;17.966;2023-07-16T09:23:33;9.60;;;2.80;;
76136;SDS011;68622;53.128;17.966;2023-07-16T09:26:00;4.70;;;2.20;;
76136;SDS011;68622;53.128;17.966;2023-07-16T09:28:26;5.90;;;2.20;;
76136;SDS011;68622;53.128;17.966;2023-07-16T09:30:53;5.80;;;2.10;;
76136;SDS011;68622;53.128;17.966;2023-07-16T09:33:20;4.70;;;2.00;;
76136;SDS011;68622;53.128;17.966;2023-07-16T09:35:49;4.30;;;2.10;;
76136;SDS011;68622;53.128;17.966;2023-07-16T09:38:17;4.90;;;1.90;;
76136;SDS011;68622;53.128;17.966;2023-07-16T09:40:44;5.80;;;1.70;;
76136;SDS011;68622;53.128;17.966;2023-07-16T09:43:12;4.60;;;2.00;;
76136;SDS011;68622;53.128;17.966;2023-07-16T09:45:39;5.60;;;1.90;;
76136;SDS011;68622;53.128;17.966;2023-07-16T09:48:07;6.00;;;2.10;;
76136;SDS011;68622;53.128;17.966;2023-07-16T09:50:35;6.50;;;2.10;;
76136;SDS011;68622;53.128;17.966;2023-07-16T09:53:03;4.90;;;1.60;;
76136;SDS011;68622;53.128;17.966;2023-07-16T09:55:33;4.60;;;1.90;;
76136;SDS011;68622;53.128;17.966;2023-07-16T09:58:03;6.70;;;2.40;;
76136;SDS011;68622;53.128;17.966;2023-07-16T10:00:35;7.70;;;2.40;;
76136;SDS011;68622;53.128;17.966;2023-07-16T10:03:05;5.70;;;2.20;;
76136;SDS011;68622;53.128;17.966;2023-07-16T10:05:35;5.80;;;2.30;;
76136;SDS011;68622;53.128;17.966;2023-07-16T10:08:14;5.00;;;2.00;;
76136;SDS011;68622;53.128;17.966;2023-07-16T10:13:12;5.60;;;2.50;;
76136;SDS011;68622;53.128;17.966;2023-07-16T10:15:39;4.90;;;2.50;;
76136;SDS011;68622;53.128;17.966;2023-07-16T10:21:00;9.00;;;2.80;;
76136;SDS011;68622;53.128;17.966;2023-07-16T10:23:38;11.20;;;2.80;;
76136;SDS011;68622;53.128;17.966;2023-07-16T10:26:07;7.10;;;2.40;;
76136;SDS011;68622;53.128;17.966;2023-07-16T10:28:35;7.70;;;2.70;;
76136;SDS011;68622;53.128;17.966;2023-07-16T10:31:04;8.00;;;2.80;;
76136;SDS011;68622;53.128;17.966;2023-07-16T10:33:34;6.20;;;2.70;;
76136;SDS011;68622;53.128;17.966;2023-07-16T10:36:04;8.30;;;2.60;;
76136;SDS011;68622;53.128;17.966;2023-07-16T10:38:30;6.90;;;3.00;;
76136;SDS011;68622;53.128;17.966;2023-07-16T10:41:08;7.70;;;2.60;;
76136;SDS011;68622;53.128;17.966;2023-07-16T10:43:35;6.00;;;2.90;;
76136;SDS011;68622;53.128;17.966;2023-07-16T10:46:02;6.10;;;2.60;;
76136;SDS011;68622;53.128;17.966;2023-07-16T10:48:29;6.60;;;3.00;;
76136;SDS011;68622;53.128;17.966;2023-07-16T10:50:56;6.70;;;3.10;;
76136;SDS011;68622;53.128;17.966;2023-07-16T10:53:23;6.30;;;2.90;;
76136;SDS011;68622;53.128;17.966;2023-07-16T10:55:49;7.00;;;2.70;;
76136;SDS011;68622;53.128;17.966;2023-07-16T10:58:16;6.80;;;2.60;;
76136;SDS011;68622;53.128;17.966;2023-07-16T11:00:43;6.50;;;2.90;;
76136;SDS011;68622;53.128;17.966;2023-07-16T11:03:14;5.80;;;3.00;;
76136;SDS011;68622;53.128;17.966;2023-07-16T11:05:45;6.80;;;3.40;;
76136;SDS011;68622;53.128;17.966;2023-07-16T11:08:21;7.70;;;3.10;;
76136;SDS011;68622;53.128;17.966;2023-07-16T11:10:58;6.80;;;3.40;;
76136;SDS011;68622;53.128;17.966;2023-07-16T11:13:26;5.30;;;2.70;;
76136;SDS011;68622;53.128;17.966;2023-07-16T11:15:53;5.90;;;3.50;;
76136;SDS011;68622;53.128;17.966;2023-07-16T11:18:23;6.30;;;2.80;;
76136;SDS011;68622;53.128;17.966;2023-07-16T11:20:53;5.50;;;2.80;;
76136;SDS011;68622;53.128;17.966;2023-07-16T11:23:20;8.70;;;2.90;;
76136;SDS011;68622;53.128;17.966;2023-07-16T11:25:47;6.00;;;2.90;;
76136;SDS011;68622;53.128;17.966;2023-07-16T11:28:15;6.20;;;2.50;;
76136;SDS011;68622;53.128;17.966;2023-07-16T11:30:42;6.00;;;2.80;;
76136;SDS011;68622;53.128;17.966;2023-07-16T11:33:11;6.20;;;2.80;;
76136;SDS011;68622;53.128;17.966;2023-07-16T11:35:39;6.60;;;2.90;;
76136;SDS011;68622;53.128;17.966;2023-07-16T11:38:06;5.90;;;2.90;;
76136;SDS011;68622;53.128;17.966;2023-07-16T11:40:34;5.90;;;2.80;;
76136;SDS011;68622;53.128;17.966;2023-07-16T11:43:08;7.20;;;3.20;;
76136;SDS011;68622;53.128;17.966;2023-07-16T11:45:36;5.90;;;2.90;;
76136;SDS011;68622;53.128;17.966;2023-07-16T11:48:04;6.40;;;2.40;;
76136;SDS011;68622;53.128;17.966;2023-07-16T11:50:31;7.00;;;2.40;;
76136;SDS011;68622;53.128;17.966;2023-07-16T11:53:01;5.70;;;2.50;;
76136;SDS011;68622;53.128;17.966;2023-07-16T11:55:28;6.70;;;2.70;;
76136;SDS011;68622;53.128;17.966;2023-07-16T11:57:55;7.80;;;2.60;;
76136;SDS011;68622;53.128;17.966;2023-07-16T12:00:23;7.80;;;3.40;;
76136;SDS011;68622;53.128;17.966;2023-07-16T12:02:50;7.40;;;3.00;;
76136;SDS011;68622;53.128;17.966;2023-07-16T12:05:20;5.50;;;2.50;;
76136;SDS011;68622;53.128;17.966;2023-07-16T12:07:50;5.50;;;2.70;;
76136;SDS011;68622;53.128;17.966;2023-07-16T12:10:17;7.40;;;3.20;;
76136;SDS011;68622;53.128;17.966;2023-07-16T12:12:43;5.30;;;3.10;;
76136;SDS011;68622;53.128;17.966;2023-07-16T12:15:10;5.90;;;2.90;;
76136;SDS011;68622;53.128;17.966;2023-07-16T12:17:36;6.10;;;3.00;;
76136;SDS011;68622;53.128;17.966;2023-07-16T12:20:03;6.20;;;2.90;;
76136;SDS011;68622;53.128;17.966;2023-07-16T12:22:30;6.90;;;2.60;;
76136;SDS011;68622;53.128;17.966;2023-07-16T12:24:57;5.10;;;2.60;;
76136;SDS011;68622;53.128;17.966;2023-07-16T12:27:26;6.00;;;2.70;;
76136;SDS011;68622;53.128;17.966;2023-07-16T12:29:53;5.90;;;2.70;;
76136;SDS011;68622;53.128;17.966;2023-07-16T12:32:20;6.20;;;3.10;;
76136;SDS011;68622;53.128;17.966;2023-07-16T12:34:46;7.50;;;3.10;;
76136;SDS011;68622;53.128;17.966;2023-07-16T12:37:13;6.20;;;2.90;;
76136;SDS011;68622;53.128;17.966;2023-07-16T12:39:40;5.00;;;2.50;;
76136;SDS011;68622;53.128;17.966;2023-07-16T12:42:06;5.80;;;2.50;;
76136;SDS011;68622;53.128;17.966;2023-07-16T12:44:33;5.40;;;2.90;;
76136;SDS011;68622;53.128;17.966;2023-07-16T12:47:00;6.40;;;2.70;;
76136;SDS011;68622;53.128;17.966;2023-07-16T12:49:26;5.50;;;2.70;;
76136;SDS011;68622;53.128;17.966;2023-07-16T12:51:53;5.80;;;2.70;;
76136;SDS011;68622;53.128;17.966;2023-07-16T12:54:19;5.50;;;2.60;;
76136;SDS011;68622;53.128;17.966;2023-07-16T12:56:46;6.00;;;2.70;;
76136;SDS011;68622;53.128;17.966;2023-07-16T12:59:14;6.30;;;2.70;;
76136;SDS011;68622;53.128;17.966;2023-07-16T13:01:40;5.50;;;2.90;;
76136;SDS011;68622;53.128;17.966;2023-07-16T13:04:07;5.80;;;2.40;;
76136;SDS011;68622;53.128;17.966;2023-07-16T13:06:33;5.00;;;2.50;;
76136;SDS011;68622;53.128;17.966;2023-07-16T13:09:00;7.70;;;2.60;;
76136;SDS011;68622;53.128;17.966;2023-07-16T13:11:27;4.90;;;2.30;;
76136;SDS011;68622;53.128;17.966;2023-07-16T13:13:53;6.40;;;2.70;;
76136;SDS011;68622;53.128;17.966;2023-07-16T13:16:20;5.30;;;2.60;;
76136;SDS011;68622;53.128;17.966;2023-07-16T13:18:46;5.70;;;2.70;;
76136;SDS011;68622;53.128;17.966;2023-07-16T13:21:13;5.50;;;2.60;;
76136;SDS011;68622;53.128;17.966;2023-07-16T13:23:40;4.90;;;2.40;;
76136;SDS011;68622;53.128;17.966;2023-07-16T13:26:06;6.60;;;2.60;;
76136;SDS011;68622;53.128;17.966;2023-07-16T13:28:33;5.10;;;2.50;;
76136;SDS011;68622;53.128;17.966;2023-07-16T13:30:59;5.50;;;2.60;;
76136;SDS011;68622;53.128;17.966;2023-07-16T13:33:26;5.70;;;2.40;;
76136;SDS011;68622;53.128;17.966;2023-07-16T13:35:52;6.40;;;3.00;;
76136;SDS011;68622;53.128;17.966;2023-07-16T13:38:19;5.70;;;2.70;;
76136;SDS011;68622;53.128;17.966;2023-07-16T13:40:46;5.90;;;2.20;;
76136;SDS011;68622;53.128;17.966;2023-07-16T13:43:12;6.40;;;2.90;;
76136;SDS011;68622;53.128;17.966;2023-07-16T13:45:39;5.40;;;2.30;;
76136;SDS011;68622;53.128;17.966;2023-07-16T13:48:05;8.70;;;3.70;;
76136;SDS011;68622;53.128;17.966;2023-07-16T13:50:34;8.30;;;4.20;;
76136;SDS011;68622;53.128;17.966;2023-07-16T13:53:01;4.70;;;2.30;;
76136;SDS011;68622;53.128;17.966;2023-07-16T13:55:28;5.60;;;2.70;;
76136;SDS011;68622;53.128;17.966;2023-07-16T13:57:55;4.80;;;2.20;;
76136;SDS011;68622;53.128;17.966;2023-07-16T14:00:22;5.80;;;2.80;;
76136;SDS011;68622;53.128;17.966;2023-07-16T14:02:49;5.30;;;2.60;;
76136;SDS011;68622;53.128;17.966;2023-07-16T14:05:16;4.70;;;2.30;;
76136;SDS011;68622;53.128;17.966;2023-07-16T14:07:42;6.20;;;2.70;;
76136;SDS011;68622;53.128;17.966;2023-07-16T14:10:10;5.50;;;2.40;;
76136;SDS011;68622;53.128;17.966;2023-07-16T14:12:38;6.20;;;2.70;;
76136;SDS011;68622;53.128;17.966;2023-07-16T14:15:04;4.80;;;2.40;;
76136;SDS011;68622;53.128;17.966;2023-07-16T14:17:31;6.10;;;2.80;;
76136;SDS011;68622;53.128;17.966;2023-07-16T14:19:58;6.20;;;2.60;;
76136;SDS011;68622;53.128;17.966;2023-07-16T14:22:25;5.50;;;2.60;;
76136;SDS011;68622;53.128;17.966;2023-07-16T14:24:54;6.20;;;2.60;;
76136;SDS011;68622;53.128;17.966;2023-07-16T14:27:20;4.90;;;2.40;;
76136;SDS011;68622;53.128;17.966;2023-07-16T14:29:47;7.20;;;2.90;;
76136;SDS011;68622;53.128;17.966;2023-07-16T14:32:13;5.20;;;2.30;;
76136;SDS011;68622;53.128;17.966;2023-07-16T14:34:40;5.20;;;2.30;;
76136;SDS011;68622;53.128;17.966;2023-07-16T14:37:07;5.90;;;2.30;;
76136;SDS011;68622;53.128;17.966;2023-07-16T14:39:33;5.80;;;2.40;;
76136;SDS011;68622;53.128;17.966;2023-07-16T14:42:00;5.80;;;2.30;;
76136;SDS011;68622;53.128;17.966;2023-07-16T14:44:30;6.10;;;2.40;;